Latest Coastal Weather Observations for Gabo Island (VIC)

IDN60701

Issued at 9:11 am EST Thursday 18 July 2019 (issued every 10 minutes, with the page automatically refreshed every 10 minutes)

About coastal observations | Map of coastal stations | Coastal observations for NSW | Marine services | Other Formats
Station Details ID: 084016 Name: GABO ISLAND LIGHTHOUSE Lat: -37.57 Lon: 149.92 Height: 15.2 m
Data from the previous 72 hours. | See also: Recent months at Gabo Island (VIC)
Date/Time
EST
Wind Sea
Height
m
Swell Vis
km
Cloud Weather Temp
°C
Press
hPa
Rain since
9am
mm
Dir  Spd
kts
Gust
kts
Height
m
Period
s
Dir
18/09:00am WSW 24 33 3 3.6 9 SW 20 Partly cloudy Fine 10.9 1013.7 0.6
18/08:30am WSW 26 33 - - - - - - - 10.7 1013.2 0.6
18/08:00am W 25 34 - - - - - - - 10.5 1012.9 0.6
18/07:30am W 27 34 - - - - - - - 10.2 1012.2 0.6
18/07:00am W 28 34 - - - - - - - 10.2 1012.2 0.6
18/06:30am WSW 27 37 - - - - - - - 10.4 1011.2 0.6
18/06:07am WSW 30 40 - - - - - - - 10.3 1011.1 0.6
18/06:00am WSW 33 42 - - - - - - - 10.2 1010.9 0.6
18/05:49am WSW 32 47 - - - - - - - 10.6 1010.9 0.4
18/05:30am WSW 32 40 - - - - - - - 10.8 1010.7 0.4
18/05:14am WSW 29 39 - - - - - - - 11.3 1009.9 0.2
18/05:00am WSW 30 38 - - - - - - - 11.3 1009.7 0.2
18/04:30am WSW 34 46 - - - - - - - 11.3 1009.1 0.2
18/04:04am WSW 35 45 - - - - - - - 11.5 1008.4 0.2
18/04:00am WSW 35 44 - - - - - - - 11.6 1008.6 0.2
18/03:33am WSW 33 43 - - - - - - - 12.0 1008.9 0.2
18/03:30am WSW 34 42 - - - - - - - 12.0 1008.9 0.2
18/03:06am WSW 33 43 - - - - - - - 12.1 1008.9 0.2
18/03:00am WSW 34 43 2 2.4 9 SW 25 Partly cloudy Fine 12.2 1008.9 0.2
18/02:40am WSW 30 41 - - - - - - - 12.2 1009.1 0.2
18/02:30am WSW 29 37 - - - - - - - 12.2 1009.1 0.2
18/02:14am WSW 27 37 - - - - - - - 12.1 1009.1 0.2
18/02:00am WSW 26 33 - - - - - - - 12.0 1009.0 0.2
18/01:30am WSW 31 41 - - - - - - - 12.2 1008.7 0.2
18/01:05am WSW 24 35 - - - - - - - 12.3 1008.9 0.2
18/01:00am WSW 25 33 - - - - - - - 12.2 1008.9 0.2
18/12:30am WSW 27 40 - - - - - - - 12.0 1009.0 0.2
18/12:20am W 24 37 - - - - - - - 12.1 1009.0 0.2
18/12:00am W 24 33 - - - - - - - 12.0 1009.2 0.2
 
Date/Time
EST
Wind Sea
Height
m
Swell Vis
km
Cloud Weather Temp
°C
Press
hPa
Rain since
9am
mm
Dir  Spd
kts
Gust
kts
Height
m
Period
s
Dir
17/11:30pm W 21 26 - - - - - - - 11.6 1009.6 0.2
17/11:00pm W 19 24 - - - - - - - 11.2 1009.6 0.2
17/10:30pm W 16 20 - - - - - - - 11.0 1009.5 0.2
17/10:00pm W 15 19 - - - - - - - 10.9 1009.6 0.2
17/09:30pm WSW 13 16 - - - - - - - 11.4 1010.0 0.2
17/09:00pm WSW 14 18 2 2.0 10 S 30 Partly cloudy Fine 11.6 1010.1 0.0
17/08:30pm WSW 9 14 - - - - - - - 11.6 1010.1 0.0
17/08:00pm NW 6 7 - - - - - - - 10.9 1009.6 0.0
17/07:30pm NW 4 7 - - - - - - - 10.6 1009.6 0.0
17/07:00pm NW 5 9 - - - - - - - 11.5 1009.5 0.0
17/06:30pm N 6 7 - - - - - - - 10.7 1009.4 0.0
17/06:00pm NNW 6 8 - - - - - - - 11.4 1009.3 0.0
17/05:30pm NNW 6 8 - - - - - - - 11.7 1009.5 0.0
17/05:00pm N 5 6 - - - - - - - 11.3 1009.5 0.0
17/04:30pm N 6 7 - - - - - - - 11.9 1009.6 0.0
17/04:00pm N 5 7 - - - - - - - 12.4 1009.8 0.0
17/03:30pm NNW 4 5 - - - - - - - 12.7 1010.0 0.0
17/03:00pm N 4 5 2 2.2 10 S 30 Mostly cloudy Fine 12.4 1010.5 0.0
17/02:30pm WSW 3 4 - - - - - - - 12.3 1010.9 0.0
17/02:00pm SW 5 7 - - - - - - - 12.5 1011.1 0.0
17/01:30pm SSW 9 11 - - - - - - - 12.1 1011.4 0.0
17/01:00pm SW 8 9 - - - - - - - 12.4 1011.4 0.0
17/12:30pm SW 9 11 - - - - - - - 12.2 1012.2 0.0
17/12:00pm WSW 7 8 - - - - - - - 12.8 1012.8 0.0
17/11:30am W 8 10 - - - - - - - 12.4 1013.5 0.0
17/11:00am W 8 11 - - - - - - - 12.2 1014.2 0.0
17/10:30am W 9 12 - - - - - - - 12.1 1014.8 0.0
17/10:00am W 10 14 - - - - - - - 12.0 1015.2 0.0
17/09:30am W 13 17 - - - - - - - 12.1 1015.3 0.0
17/09:00am W 15 20 3 2.6 10 SW 30 Mostly cloudy Fine 11.8 1015.4 0.0
17/08:30am W 16 19 - - - - - - - 11.3 1015.6 0.0
17/08:00am W 15 19 - - - - - - - 11.1 1015.4 0.0
17/07:30am W 17 21 - - - - - - - 11.0 1015.6 0.0
17/07:00am WSW 17 21 - - - - - - - 11.3 1015.6 0.0
17/06:30am WSW 19 23 - - - - - - - 11.8 1015.4 0.0
17/06:00am W 17 23 - - - - - - - 11.7 1015.2 0.0
17/05:30am W 14 18 - - - - - - - 11.6 1015.3 0.0
17/05:00am W 16 20 - - - - - - - 11.5 1015.2 0.0
17/04:30am W 19 25 - - - - - - - 11.7 1015.0 0.0
17/04:00am W 15 21 - - - - - - - 11.7 1015.4 0.0
17/03:30am W 17 22 - - - - - - - 11.9 1015.6 0.0
17/03:00am W 18 25 3 3.2 10 SW 25 Cloudy Fine 12.0 1015.9 0.0
17/02:30am WSW 24 31 - - - - - - - 12.3 1015.8 0.0
17/02:02am WSW 25 35 - - - - - - - 12.4 1015.7 0.0
17/02:00am WSW 26 35 - - - - - - - 12.3 1015.7 0.0
17/01:30am WSW 21 27 - - - - - - - 12.5 1016.1 0.0
17/01:00am WSW 23 27 - - - - - - - 12.6 1015.9 0.0
17/12:31am WSW 20 30 - - - - - - - 12.7 1016.3 0.0
17/12:30am WSW 21 30 - - - - - - - 12.7 1016.3 0.0
17/12:00am WSW 24 31 - - - - - - - 12.9 1016.4 0.0
 
Date/Time
EST
Wind Sea
Height
m
Swell Vis
km
Cloud Weather Temp
°C
Press
hPa
Rain since
9am
mm
Dir  Spd
kts
Gust
kts
Height
m
Period
s
Dir
16/11:48pm WSW 27 37 - - - - - - - 13.0 1016.5 0.0
16/11:30pm WSW 25 32 - - - - - - - 13.0 1016.5 0.0
16/11:00pm WSW 27 34 - - - - - - - 13.2 1016.2 0.0
16/10:34pm WSW 28 38 - - - - - - - 13.3 1016.4 0.0
16/10:30pm WSW 29 38 - - - - - - - 13.2 1016.3 0.0
16/10:29pm WSW 28 38 - - - - - - - 13.3 1016.3 0.0
16/10:00pm WSW 29 37 - - - - - - - 13.1 1016.0 0.0
16/09:30pm WSW 31 39 - - - - - - - 13.3 1015.9 0.0
16/09:00pm WSW 32 43 3 3.6 9 SW 25 Cloudy Fine 13.3 1016.1 0.0
16/08:52pm WSW 28 39 - - - - - - - 13.6 1016.2 0.0
16/08:30pm WSW 28 36 - - - - - - - 13.2 1016.0 0.0
16/08:00pm WSW 29 37 - - - - - - - 13.2 1015.7 0.0
16/07:30pm WSW 31 40 - - - - - - - 13.2 1015.9 0.0
16/07:08pm WSW 27 38 - - - - - - - 13.4 1015.7 0.0
16/07:00pm WSW 28 35 - - - - - - - 13.4 1015.8 0.0
16/06:30pm WSW 26 37 - - - - - - - 13.5 1015.9 0.0
16/06:23pm WSW 27 37 - - - - - - - 13.5 1015.6 0.0
16/06:00pm WSW 28 35 - - - - - - - 13.6 1015.4 0.0
16/05:30pm WSW 27 35 - - - - - - - 13.5 1015.3 0.0
16/05:02pm WSW 29 39 - - - - - - - 13.8 1015.0 0.0
16/05:00pm WSW 30 39 - - - - - - - 13.7 1015.0 0.0
16/04:42pm WSW 28 39 - - - - - - - 13.8 1014.8 0.0
16/04:30pm WSW 27 36 - - - - - - - 13.9 1014.8 0.0
16/04:08pm WSW 29 39 - - - - - - - 14.0 1014.8 0.0
16/04:00pm WSW 31 39 - - - - - - - 14.0 1014.6 0.0
16/03:30pm WSW 28 38 - - - - - - - 14.3 1014.4 0.0
16/03:10pm WSW 28 38 - - - - - - - 14.2 1014.0 0.0
16/03:00pm WSW 30 38 3 3.6 9 SW 30 Mostly cloudy Fine 14.3 1014.1 0.0
16/02:37pm WSW 32 42 - - - - - - - 14.3 1014.0 0.0
16/02:30pm WSW 34 42 - - - - - - - 14.7 1013.9 0.0
16/02:22pm WSW 31 41 - - - - - - - 14.9 1013.8 0.0
16/02:00pm WSW 32 41 - - - - - - - 14.8 1013.8 0.0
16/01:47pm WSW 28 39 - - - - - - - 15.0 1013.9 0.0
16/01:30pm WSW 28 36 - - - - - - - 15.1 1014.1 0.0
16/01:02pm WSW 27 37 - - - - - - - 14.7 1014.2 0.0
16/01:00pm WSW 26 35 - - - - - - - 14.6 1014.4 0.0
16/12:30pm WSW 31 42 - - - - - - - 14.5 1014.6 0.0
16/12:01pm WSW 29 39 - - - - - - - 14.1 1015.4 0.0
16/12:00pm WSW 30 39 - - - - - - - 14.0 1015.4 0.0
16/11:30am WSW 32 42 - - - - - - - 13.9 1015.5 0.0
16/11:00am WSW 34 44 - - - - - - - 14.0 1015.1 0.0
16/10:30am WSW 32 45 - - - - - - - 13.9 1015.1 0.0
16/10:00am WSW 31 41 - - - - - - - 13.7 1015.2 0.0
16/09:30am WSW 30 40 - - - - - - - 13.4 1015.3 0.0
16/09:01am WSW 30 40 - - - - - - - 13.2 1014.8 0.0
16/09:00am WSW 31 40 3 3.8 8 SW 25 Partly cloudy Fine 13.2 1014.8 0.0
16/08:30am WSW 29 43 - - - - - - - 12.9 1014.9 0.0
16/08:02am WSW 27 38 - - - - - - - 12.9 1015.1 0.0
16/08:00am WSW 27 35 - - - - - - - 12.9 1015.1 0.0
16/07:30am WSW 27 40 - - - - - - - 12.8 1015.1 0.0
16/07:09am WSW 27 37 - - - - - - - 12.8 1015.2 0.0
16/07:00am WSW 27 35 - - - - - - - 12.8 1015.2 0.0
16/06:41am WSW 26 36 - - - - - - - 12.8 1015.2 0.0
16/06:30am WSW 25 34 - - - - - - - 12.8 1015.2 0.0
16/06:00am WSW 28 36 - - - - - - - 12.4 1015.0 0.0
16/05:30am WSW 25 37 - - - - - - - 12.5 1015.0 0.0
16/05:00am WSW 27 38 - - - - - - - 12.5 1015.0 0.0
16/04:38am WSW 28 38 - - - - - - - 12.4 1014.5 0.0
16/04:30am WSW 29 38 - - - - - - - 12.5 1014.5 0.0
16/04:22am WSW 29 39 - - - - - - - 12.5 1014.3 0.0
16/04:00am WSW 30 37 - - - - - - - 12.5 1014.2 0.0
16/03:36am WSW 34 44 - - - - - - - 12.6 1013.9 0.0
16/03:30am WSW 36 44 - - - - - - - 12.6 1013.8 0.0
16/03:16am WSW 33 43 - - - - - - - 12.7 1013.6 0.0
16/03:00am WSW 31 40 3 4.0 8 SE 25 Mostly clear Fine 12.8 1013.7 0.0
16/02:34am WSW 31 41 - - - - - - - 13.0 1013.9 0.0
16/02:30am WSW 32 40 - - - - - - - 12.9 1013.8 0.0
16/02:00am WSW 33 42 - - - - - - - 13.2 1013.6 0.0
16/01:30am WSW 32 43 - - - - - - - 13.3 1013.6 0.0
16/01:00am WSW 33 43 - - - - - - - 13.4 1013.6 0.0
16/12:33am WSW 29 39 - - - - - - - 13.4 1013.6 0.0
16/12:30am WSW 29 37 - - - - - - - 13.5 1013.8 0.0
16/12:03am WSW 32 42 - - - - - - - 13.6 1013.6 0.0
16/12:00am WSW 32 40 - - - - - - - 13.6 1013.5 0.0
 
Date/Time
EST
Wind Sea
Height
m
Swell Vis
km
Cloud Weather Temp
°C
Press
hPa
Rain since
9am
mm
Dir  Spd
kts
Gust
kts
Height
m
Period
s
Dir
15/11:36pm WSW 27 37 - - - - - - - 13.5 1013.5 0.0
15/11:30pm WSW 29 37 - - - - - - - 13.6 1013.6 0.0
15/11:00pm WSW 29 39 - - - - - - - 13.8 1013.9 0.0
15/10:30pm WSW 29 39 - - - - - - - 13.9 1014.2 0.0
15/10:04pm WSW 25 35 - - - - - - - 13.8 1013.9 0.0
15/10:00pm WSW 25 34 - - - - - - - 13.8 1013.9 0.0
15/09:30pm WSW 25 33 - - - - - - - 13.9 1014.5 0.0
15/09:00pm WSW 30 40 3 4.0 8 SW 25 Mostly cloudy Fine 13.7 1014.2 0.0
15/08:43pm W 28 41 - - - - - - - 13.6 1014.3 0.0
15/08:30pm W 27 34 - - - - - - - 13.5 1014.3 0.0
15/08:04pm WSW 29 39 - - - - - - - 13.0 1014.5 0.0
15/08:00pm W 27 35 - - - - - - - 13.1 1014.5 0.0
15/07:30pm WSW 27 33 - - - - - - - 12.5 1014.7 0.0
15/07:00pm WSW 23 31 - - - - - - - 12.4 1014.7 0.0
15/06:30pm WSW 24 30 - - - - - - - 12.5 1014.6 0.0
15/06:00pm WSW 24 31 - - - - - - - 12.4 1014.7 0.0
15/05:30pm WSW 25 32 - - - - - - - 12.4 1014.5 0.0
15/05:00pm WSW 24 34 - - - - - - - 12.3 1014.6 0.0
15/04:30pm WSW 24 34 - - - - - - - 12.3 1014.6 0.0
15/04:25pm WSW 22 34 - - - - - - - 12.3 1014.5 0.0
15/04:00pm WSW 27 35 - - - - - - - 12.4 1014.5 0.0
15/03:38pm WSW 26 39 - - - - - - - 12.3 1014.6 0.0
15/03:30pm WSW 25 33 - - - - - - - 12.6 1014.7 0.0
15/03:06pm WSW 26 36 - - - - - - - 11.9 1014.6 0.0
15/03:00pm WSW 26 32 3 4.0 8 SW 20 Mostly cloudy Fine 11.9 1014.6 0.0
15/02:30pm WSW 25 33 - - - - - - - 11.7 1014.6 0.0
15/02:00pm WSW 30 40 - - - - - - - 11.9 1014.2 0.0
15/01:38pm WSW 30 40 - - - - - - - 12.4 1014.0 0.0
15/01:30pm WSW 31 39 - - - - - - - 12.2 1014.1 0.0
15/01:00pm WSW 32 42 - - - - - - - 12.5 1014.1 0.0
15/12:32pm WSW 31 41 - - - - - - - 12.4 1014.1 0.0
15/12:30pm WSW 31 39 - - - - - - - 12.5 1014.1 0.0
15/12:00pm WSW 30 40 - - - - - - - 12.4 1014.5 0.0
15/11:37am WSW 33 43 - - - - - - - 12.5 1014.3 0.0
15/11:30am WSW 32 40 - - - - - - - 12.7 1014.3 0.0
15/11:08am WSW 31 41 - - - - - - - 12.2 1014.5 0.0
15/11:00am WSW 31 39 - - - - - - - 12.2 1014.6 0.0
15/10:30am WSW 30 38 - - - - - - - 11.9 1014.8 0.0
15/10:10am WSW 30 40 - - - - - - - 11.9 1014.8 0.0
15/10:00am WSW 31 39 - - - - - - - 11.7 1014.7 0.0
15/09:30am W 26 32 - - - - - - - 11.1 1014.5 0.0

Other formats

Comma delimited format used in spreadsheet applications
http://www.bom.gov.au/fwo/IDN60701/IDN60701.94933.axf

JavaScript Object Notation format (JSON) in row-major order
http://www.bom.gov.au/fwo/IDN60701/IDN60701.94933.json

Data quality

Most of these data are generated automatically and are frequently updated. Quality checks on data are not normally performed. It is possible for incorrect values to appear. Refer to information at About Latest Weather Observations and please check the disclaimer before using these data.